Terminal Aerodrome Forecast
Issued by NWS Twin Cities, MN

Home | Current Version | Previous Version | Text Only | Print | Product List | Glossary On
Versions: 1 2 3 4 5 6 7 8 9 10 11 12 13 14 15 16 17 18
000
FTUS43 KMPX 300124 AAA
TAFSTC
TAF AMD
KSTC 300124Z 3001/3024 36013G21KT P6SM VCSH OVC035
     FM300200 35011KT P6SM SCT035 OVC100
     FM300600 36010KT P6SM SCT250
     FM301500 01011G19KT P6SM FEW035=

USA.gov is the U.S. government's official web portal to all federal, state and local government web resources and services.